Terminal Aerodrome Forecast
Issued by NWS Omaha/Valley, NE

Home | Current Version | Previous Version | Text Only | Print | Product List | Glossary On
Versions: 1 2 3 4 5 6 7 8 9 10 11 12 13 14 15 16 17 18 19 20 21 22 23 24 25 26 27 28 29 30 31 32 33 34 35 36 37 38 39 40
481
FTUS43 KOAX 300522
TAFLNK
TAF
KLNK 300522Z 3006/0106 06015G24KT P6SM -RA OVC014
      TEMPO 3006/3007 BKN008
     FM300700 05020G28KT 4SM -RA BR OVC008
     FM301100 05016G24KT 2SM RA BR OVC004
     FM301500 05013KT 4SM BR VCSH OVC004
     FM301900 03012KT 6SM BR OVC008
     FM010000 04012KT 4SM -RA OVC008=

USA.gov is the U.S. government's official web portal to all federal, state and local government web resources and services.